createdAt,value
2023-02-19T00:00:39.505Z,10.25
2023-02-19T00:01:39.407Z,10.25
2023-02-19T00:02:39.387Z,10.25
2023-02-19T00:03:39.514Z,10.27
2023-02-19T00:04:46.458Z,10.24
2023-02-19T00:05:39.379Z,10.27
2023-02-19T00:06:39.279Z,10.27
2023-02-19T00:07:39.265Z,10.25
2023-02-19T00:08:39.295Z,10.27
2023-02-19T00:09:39.268Z,10.28
2023-02-19T00:10:39.245Z,10.28
2023-02-19T00:11:39.236Z,10.28
2023-02-19T00:12:39.193Z,10.27
2023-02-19T00:13:39.233Z,10.28
2023-02-19T00:14:39.201Z,10.27
2023-02-19T00:15:39.171Z,10.25
2023-02-19T00:16:39.146Z,10.25
2023-02-19T00:17:39.133Z,10.24
2023-02-19T00:18:39.135Z,10.24
2023-02-19T00:19:39.155Z,10.24
2023-02-19T00:20:39.125Z,10.24
2023-02-19T00:21:39.064Z,10.24
2023-02-19T00:22:39.075Z,10.20
2023-02-19T00:23:39.075Z,10.20
2023-02-19T00:24:39.084Z,10.20
2023-02-19T00:25:39.034Z,10.21
2023-02-19T00:26:39.014Z,10.23
2023-02-19T00:27:39.009Z,10.24
2023-02-19T00:28:39.015Z,10.23
2023-02-19T00:29:39.001Z,10.21
2023-02-19T00:30:38.980Z,10.20
2023-02-19T00:31:39.078Z,10.20
2023-02-19T00:32:38.942Z,10.20
2023-02-19T00:33:38.938Z,10.21
2023-02-19T00:34:39.748Z,10.21
2023-02-19T00:35:38.893Z,10.21
2023-02-19T00:36:38.895Z,10.21
2023-02-19T00:37:38.869Z,10.21
2023-02-19T00:38:38.861Z,10.18
2023-02-19T00:39:38.859Z,10.18
2023-02-19T00:40:38.852Z,10.17
2023-02-19T00:41:38.808Z,10.18
2023-02-19T00:42:38.808Z,10.18
2023-02-19T00:43:38.792Z,10.15
2023-02-19T00:44:38.800Z,10.17
2023-02-19T00:45:38.790Z,10.15
2023-02-19T00:46:38.839Z,10.17
2023-02-19T00:47:38.742Z,10.18
2023-02-19T00:48:38.729Z,10.17
2023-02-19T00:49:38.733Z,10.17
2023-02-19T00:50:38.723Z,10.17
2023-02-19T00:51:38.680Z,10.13
2023-02-19T00:52:38.686Z,10.15
2023-02-19T00:53:38.665Z,10.13
2023-02-19T00:54:38.671Z,10.13
2023-02-19T00:55:38.666Z,10.15
2023-02-19T00:56:38.627Z,10.15
2023-02-19T00:57:38.620Z,10.15
2023-02-19T00:58:38.607Z,10.13
2023-02-19T00:59:38.602Z,10.10
2023-02-19T01:00:38.584Z,10.12
2023-02-19T01:01:38.682Z,10.12
2023-02-19T01:02:38.617Z,10.10
2023-02-19T01:03:38.538Z,10.12
2023-02-19T01:04:38.590Z,10.12
2023-02-19T01:05:38.504Z,10.13
2023-02-19T01:06:38.502Z,10.15
2023-02-19T01:07:38.533Z,10.13
2023-02-19T01:08:38.458Z,10.12
2023-02-19T01:09:38.525Z,10.12
2023-02-19T01:10:38.446Z,10.12
2023-02-19T01:11:38.429Z,10.12
2023-02-19T01:12:38.426Z,10.13
2023-02-19T01:13:38.402Z,10.15
2023-02-19T01:14:38.457Z,10.13
2023-02-19T01:15:38.371Z,10.13
2023-02-19T01:16:38.361Z,10.15
2023-02-19T01:17:38.340Z,10.15
2023-02-19T01:18:38.359Z,10.13
2023-02-19T01:19:38.337Z,10.13
2023-02-19T01:20:38.326Z,10.15
2023-02-19T01:21:38.288Z,10.15
2023-02-19T01:22:38.280Z,10.17
2023-02-19T01:23:38.267Z,10.18
2023-02-19T01:24:38.286Z,10.17
2023-02-19T01:25:38.245Z,10.18
2023-02-19T01:26:38.230Z,10.20
2023-02-19T01:27:38.209Z,10.21
2023-02-19T01:28:38.206Z,10.20
2023-02-19T01:29:38.303Z,10.20
2023-02-19T01:30:38.186Z,10.20
2023-02-19T01:31:38.366Z,10.17
2023-02-19T01:32:38.144Z,10.17
2023-02-19T01:33:38.130Z,10.15
2023-02-19T01:34:38.195Z,10.15
2023-02-19T01:35:38.152Z,10.17
2023-02-19T01:36:38.095Z,10.13
2023-02-19T01:37:38.117Z,10.15
2023-02-19T01:38:38.074Z,10.15
2023-02-19T01:39:38.047Z,10.13
2023-02-19T01:40:38.062Z,10.13
2023-02-19T01:41:38.032Z,10.13
2023-02-19T01:42:38.035Z,10.13
2023-02-19T01:43:37.997Z,10.13
2023-02-19T01:44:38.121Z,10.12
2023-02-19T01:45:37.987Z,10.12
2023-02-19T01:46:38.048Z,10.12
2023-02-19T01:47:37.947Z,10.12
2023-02-19T01:48:37.963Z,10.10
2023-02-19T01:49:37.920Z,10.12
2023-02-19T01:50:37.940Z,10.09
2023-02-19T01:51:37.888Z,10.12
2023-02-19T01:52:37.878Z,10.10
2023-02-19T01:53:37.871Z,10.10
2023-02-19T01:54:37.915Z,10.12
2023-02-19T01:55:37.878Z,10.10
2023-02-19T01:56:37.855Z,10.12
2023-02-19T01:57:37.839Z,10.10
2023-02-19T01:58:37.819Z,10.12
2023-02-19T01:59:37.793Z,10.09
2023-02-19T02:00:37.804Z,10.10
2023-02-19T02:01:37.884Z,10.12
2023-02-19T02:02:37.751Z,10.10
2023-02-19T02:03:37.739Z,10.10
2023-02-19T02:04:37.738Z,10.10
2023-02-19T02:05:37.729Z,10.10
2023-02-19T02:06:37.718Z,10.12
2023-02-19T02:07:37.712Z,10.12
2023-02-19T02:08:37.677Z,10.13
2023-02-19T02:09:37.660Z,10.15
2023-02-19T02:10:37.649Z,10.15
2023-02-19T02:11:37.666Z,10.15
2023-02-19T02:12:37.632Z,10.15
2023-02-19T02:13:37.609Z,10.13
2023-02-19T02:14:37.616Z,10.13
2023-02-19T02:15:37.621Z,10.12
2023-02-19T02:16:37.611Z,10.12
2023-02-19T02:17:37.557Z,10.10
2023-02-19T02:18:37.552Z,10.09
2023-02-19T02:19:37.532Z,10.07
2023-02-19T02:20:37.535Z,10.06
2023-02-19T02:21:37.526Z,10.02
2023-02-19T02:22:37.499Z,9.99
2023-02-19T02:23:37.484Z,10.00
2023-02-19T02:24:37.483Z,9.99
2023-02-19T02:25:37.456Z,9.99
2023-02-19T02:26:37.472Z,9.94
2023-02-19T02:27:37.427Z,9.94
2023-02-19T02:28:37.430Z,9.94
2023-02-19T02:29:37.417Z,9.95
2023-02-19T02:30:37.404Z,9.99
2023-02-19T02:31:37.496Z,10.00
2023-02-19T02:32:37.387Z,10.00
2023-02-19T02:33:37.357Z,10.02
2023-02-19T02:34:37.336Z,10.02
2023-02-19T02:35:37.323Z,10.02
2023-02-19T02:36:37.307Z,10.02
2023-02-19T02:37:37.314Z,10.00
2023-02-19T02:38:37.292Z,10.02
2023-02-19T02:39:37.264Z,10.03
2023-02-19T02:40:37.253Z,10.02
2023-02-19T02:41:37.244Z,10.03
2023-02-19T02:42:37.245Z,10.05
2023-02-19T02:43:37.223Z,10.06
2023-02-19T02:44:37.204Z,10.06
2023-02-19T02:45:37.653Z,10.03
2023-02-19T02:46:37.175Z,10.03
2023-02-19T02:47:37.182Z,10.06
2023-02-19T02:48:37.156Z,10.06
2023-02-19T02:49:37.133Z,10.05
2023-02-19T02:50:37.133Z,10.03
2023-02-19T02:51:37.113Z,10.02
2023-02-19T02:52:37.103Z,10.00
2023-02-19T02:53:37.145Z,10.00
2023-02-19T02:54:37.095Z,10.02
2023-02-19T02:55:37.065Z,9.95
2023-02-19T02:56:37.078Z,9.95
2023-02-19T02:57:37.036Z,9.95
2023-02-19T02:58:37.034Z,9.97
2023-02-19T02:59:37.015Z,9.91
2023-02-19T03:00:37.013Z,9.88
2023-02-19T03:01:36.982Z,9.90
2023-02-19T03:02:36.968Z,9.88
2023-02-19T03:03:36.974Z,9.88
2023-02-19T03:04:36.943Z,9.88
2023-02-19T03:05:36.934Z,9.85
2023-02-19T03:06:36.934Z,9.84
2023-02-19T03:07:36.955Z,9.81
2023-02-19T03:08:36.923Z,9.80
2023-02-19T03:09:36.884Z,9.80
2023-02-19T03:10:36.897Z,9.77
2023-02-19T03:11:36.848Z,9.76
2023-02-19T03:12:36.837Z,9.74
2023-02-19T03:13:36.845Z,9.74
2023-02-19T03:14:36.815Z,9.74
2023-02-19T03:15:36.788Z,9.73
2023-02-19T03:16:36.809Z,9.74
2023-02-19T03:17:36.773Z,9.76
2023-02-19T03:18:36.789Z,9.76
2023-02-19T03:19:36.762Z,9.77
2023-02-19T03:20:36.732Z,9.81
2023-02-19T03:21:36.713Z,9.81
2023-02-19T03:22:36.718Z,9.82
2023-02-19T03:23:36.693Z,9.81
2023-02-19T03:24:36.695Z,9.82
2023-02-19T03:25:36.673Z,9.82
2023-02-19T03:26:36.651Z,9.81
2023-02-19T03:27:36.630Z,9.81
2023-02-19T03:28:36.624Z,9.81
2023-02-19T03:29:36.629Z,9.82
2023-02-19T03:30:36.629Z,9.82
2023-02-19T03:31:36.701Z,9.82
2023-02-19T03:32:36.581Z,9.82
2023-02-19T03:33:36.572Z,9.85
2023-02-19T03:34:36.574Z,9.87
2023-02-19T03:35:36.541Z,9.87
2023-02-19T03:36:36.514Z,9.87
2023-02-19T03:37:36.514Z,9.88
2023-02-19T03:38:36.503Z,9.91
2023-02-19T03:39:36.498Z,9.91
2023-02-19T03:40:36.462Z,9.90
2023-02-19T03:41:36.440Z,9.92
2023-02-19T03:42:36.442Z,9.92
2023-02-19T03:43:36.430Z,9.94
2023-02-19T03:44:36.434Z,9.95
2023-02-19T03:45:36.447Z,9.92
2023-02-19T03:46:36.389Z,9.94
2023-02-19T03:47:36.402Z,9.92
2023-02-19T03:48:36.370Z,9.91
2023-02-19T03:49:36.362Z,9.92
2023-02-19T03:50:36.329Z,9.92
2023-02-19T03:51:36.335Z,9.92
2023-02-19T03:52:36.320Z,9.92
2023-02-19T03:53:36.292Z,9.92
2023-02-19T03:54:36.283Z,9.91
2023-02-19T03:55:36.302Z,9.92
2023-02-19T03:56:36.253Z,9.92
2023-02-19T03:57:36.246Z,9.95
2023-02-19T03:58:36.257Z,9.94
2023-02-19T03:59:36.221Z,9.95
2023-02-19T04:00:36.218Z,9.97
2023-02-19T04:01:36.218Z,9.95
2023-02-19T04:02:36.393Z,9.94
2023-02-19T04:03:36.166Z,9.91
2023-02-19T04:04:36.207Z,9.91
2023-02-19T04:05:36.173Z,9.90
2023-02-19T04:06:36.127Z,9.88
2023-02-19T04:07:36.116Z,9.85
2023-02-19T04:08:36.097Z,9.85
2023-02-19T04:09:36.096Z,9.84
2023-02-19T04:10:36.105Z,9.82
2023-02-19T04:11:36.089Z,9.84
2023-02-19T04:12:36.045Z,9.85
2023-02-19T04:13:36.027Z,9.85
2023-02-19T04:14:36.018Z,9.85
2023-02-19T04:15:36.028Z,9.85
2023-02-19T04:16:36.083Z,9.90
2023-02-19T04:17:35.995Z,9.90
2023-02-19T04:18:35.967Z,9.90
2023-02-19T04:19:35.958Z,9.91
2023-02-19T04:20:35.933Z,9.92
2023-02-19T04:21:35.951Z,9.91
2023-02-19T04:22:35.917Z,9.94
2023-02-19T04:23:35.911Z,9.94
2023-02-19T04:24:35.888Z,9.92
2023-02-19T04:25:35.880Z,9.91
2023-02-19T04:26:36.107Z,9.91
2023-02-19T04:27:35.849Z,9.91
2023-02-19T04:28:35.848Z,9.92
2023-02-19T04:29:38.231Z,9.94
2023-02-19T04:30:35.875Z,9.95
2023-02-19T04:31:35.895Z,9.95
2023-02-19T04:32:35.775Z,9.94
2023-02-19T04:33:35.775Z,9.95
2023-02-19T04:34:35.752Z,9.97
2023-02-19T04:35:35.744Z,9.95
2023-02-19T04:36:35.754Z,9.95
2023-02-19T04:37:35.714Z,9.95
2023-02-19T04:38:35.703Z,9.92
2023-02-19T04:39:35.681Z,9.95
2023-02-19T04:40:35.675Z,9.95
2023-02-19T04:41:35.687Z,9.94
2023-02-19T04:42:35.647Z,9.94
2023-02-19T04:43:35.649Z,9.97
2023-02-19T04:44:35.622Z,9.95
2023-02-19T04:45:35.611Z,9.92
2023-02-19T04:46:35.613Z,9.91
2023-02-19T04:47:35.637Z,9.92
2023-02-19T04:48:35.576Z,9.91
2023-02-19T04:49:35.551Z,9.91
2023-02-19T04:50:35.552Z,9.91
2023-02-19T04:51:35.543Z,9.91
2023-02-19T04:52:35.515Z,9.90
2023-02-19T04:53:35.512Z,9.90
2023-02-19T04:54:35.493Z,9.91
2023-02-19T04:55:35.454Z,9.88
2023-02-19T04:56:35.471Z,9.88
2023-02-19T04:57:35.456Z,9.90
2023-02-19T04:58:35.433Z,9.92
2023-02-19T04:59:35.422Z,9.91
2023-02-19T05:00:35.422Z,9.91
2023-02-19T05:01:35.479Z,9.91
2023-02-19T05:02:35.382Z,9.90
2023-02-19T05:03:35.386Z,9.92
2023-02-19T05:04:35.430Z,9.90
2023-02-19T05:05:35.342Z,9.88
2023-02-19T05:06:35.353Z,9.88
2023-02-19T05:07:35.322Z,9.87
2023-02-19T05:08:36.163Z,9.87
2023-02-19T05:09:35.771Z,9.82
2023-02-19T05:10:36.896Z,9.81
2023-02-19T05:11:35.749Z,9.80
2023-02-19T05:12:35.264Z,9.80
2023-02-19T05:13:35.414Z,9.76
2023-02-19T05:14:35.225Z,9.74
2023-02-19T05:15:35.224Z,9.76
2023-02-19T05:16:35.222Z,9.76
2023-02-19T05:17:35.192Z,9.77
2023-02-19T05:18:35.178Z,9.80
2023-02-19T05:19:35.183Z,9.81
2023-02-19T05:20:35.144Z,9.81
2023-02-19T05:21:35.198Z,9.81
2023-02-19T05:22:35.132Z,9.82
2023-02-19T05:23:35.113Z,9.81
2023-02-19T05:24:35.098Z,9.81
2023-02-19T05:25:35.080Z,9.81
2023-02-19T05:26:35.082Z,9.82
2023-02-19T05:27:35.062Z,9.82
2023-02-19T05:28:35.043Z,9.81
2023-02-19T05:29:35.023Z,9.77
2023-02-19T05:30:35.045Z,9.80
2023-02-19T05:31:35.113Z,9.81
2023-02-19T05:32:34.981Z,9.84
2023-02-19T05:33:34.974Z,9.84
2023-02-19T05:34:34.943Z,9.84
2023-02-19T05:35:34.994Z,9.81
2023-02-19T05:36:34.946Z,9.82
2023-02-19T05:37:34.923Z,9.81
2023-02-19T05:38:34.913Z,9.82
2023-02-19T05:39:34.918Z,9.80
2023-02-19T05:40:34.878Z,9.80
2023-02-19T05:41:34.871Z,9.80
2023-02-19T05:42:34.839Z,9.80
2023-02-19T05:43:34.829Z,9.82
2023-02-19T05:44:34.817Z,9.82
2023-02-19T05:45:34.799Z,9.80
2023-02-19T05:46:34.840Z,9.80
2023-02-19T05:47:34.776Z,9.76
2023-02-19T05:48:34.767Z,9.74
2023-02-19T05:49:34.753Z,9.73
2023-02-19T05:50:34.739Z,9.72
2023-02-19T05:51:34.731Z,9.74
2023-02-19T05:52:34.720Z,9.76
2023-02-19T05:53:34.716Z,9.76
2023-02-19T05:54:34.690Z,9.77
2023-02-19T05:55:34.680Z,9.73
2023-02-19T05:56:34.658Z,9.73
2023-02-19T05:57:34.660Z,9.74
2023-02-19T05:58:34.630Z,9.74
2023-02-19T05:59:34.631Z,9.76
2023-02-19T06:00:34.631Z,9.77
2023-02-19T06:01:34.614Z,9.74
2023-02-19T06:02:34.603Z,9.76
2023-02-19T06:03:34.582Z,9.73
2023-02-19T06:04:34.550Z,9.73
2023-02-19T06:05:34.580Z,9.72
2023-02-19T06:06:34.530Z,9.72
2023-02-19T06:07:34.541Z,9.70
2023-02-19T06:08:34.501Z,9.72
2023-02-19T06:09:34.492Z,9.70
2023-02-19T06:10:34.469Z,9.70
2023-02-19T06:11:34.475Z,9.72
2023-02-19T06:12:34.572Z,9.72
2023-02-19T06:13:34.432Z,9.70
2023-02-19T06:14:34.421Z,9.70
2023-02-19T06:15:34.412Z,9.70
2023-02-19T06:16:34.430Z,9.73
2023-02-19T06:17:34.441Z,9.73
2023-02-19T06:18:34.366Z,9.73
2023-02-19T06:19:34.380Z,9.76
2023-02-19T06:20:34.393Z,9.76
2023-02-19T06:21:34.344Z,9.80
2023-02-19T06:22:41.593Z,9.77
2023-02-19T06:23:34.291Z,9.77
2023-02-19T06:24:34.282Z,9.76
2023-02-19T06:25:34.283Z,9.80
2023-02-19T06:26:34.283Z,9.80
2023-02-19T06:27:34.325Z,9.80
2023-02-19T06:28:34.226Z,9.82
2023-02-19T06:29:34.213Z,9.84
2023-02-19T06:30:34.236Z,9.81
2023-02-19T06:31:34.251Z,9.82
2023-02-19T06:32:34.186Z,9.84
2023-02-19T06:33:34.175Z,9.77
2023-02-19T06:34:34.173Z,9.77
2023-02-19T06:35:34.189Z,9.76
2023-02-19T06:36:34.138Z,9.77
2023-02-19T06:37:34.149Z,9.76
2023-02-19T06:38:34.155Z,9.74
2023-02-19T06:39:34.110Z,9.74
2023-02-19T06:40:34.089Z,9.73
2023-02-19T06:41:34.081Z,9.72
2023-02-19T06:42:34.074Z,9.72
2023-02-19T06:43:34.041Z,9.73
2023-02-19T06:44:34.049Z,9.72
2023-02-19T06:45:34.011Z,9.70
2023-02-19T06:46:34.031Z,9.67
2023-02-19T06:47:34.008Z,9.69
2023-02-19T06:48:33.976Z,9.69
2023-02-19T06:49:33.988Z,9.70
2023-02-19T06:50:33.959Z,9.70
2023-02-19T06:51:33.941Z,9.70
2023-02-19T06:52:33.944Z,9.73
2023-02-19T06:53:33.914Z,9.74
2023-02-19T06:54:33.903Z,9.74
2023-02-19T06:55:33.892Z,9.72
2023-02-19T06:56:33.865Z,9.72
2023-02-19T06:57:33.870Z,9.73
2023-02-19T06:58:33.843Z,9.74
2023-02-19T06:59:33.844Z,9.76
2023-02-19T07:00:33.878Z,9.76
2023-02-19T07:01:33.828Z,9.77
2023-02-19T07:02:33.811Z,9.80
2023-02-19T07:03:33.788Z,9.80
2023-02-19T07:04:33.771Z,9.77
2023-02-19T07:05:33.741Z,9.80
2023-02-19T07:06:33.737Z,9.77
2023-02-19T07:07:33.721Z,9.76
2023-02-19T07:08:33.709Z,9.77
2023-02-19T07:09:33.698Z,9.76
2023-02-19T07:10:33.679Z,9.77
2023-02-19T07:11:33.732Z,9.81
2023-02-19T07:12:33.638Z,9.82
2023-02-19T07:13:33.651Z,9.82
2023-02-19T07:14:33.666Z,9.84
2023-02-19T07:15:33.626Z,9.82
2023-02-19T07:16:33.638Z,9.80
2023-02-19T07:17:33.577Z,9.81
2023-02-19T07:18:33.587Z,9.82
2023-02-19T07:19:33.566Z,9.84
2023-02-19T07:20:33.552Z,9.85
2023-02-19T07:21:33.528Z,9.85
2023-02-19T07:22:33.522Z,9.84
2023-02-19T07:23:33.524Z,9.84
2023-02-19T07:24:33.486Z,9.88
2023-02-19T07:25:33.486Z,9.85
2023-02-19T07:26:33.474Z,9.85
2023-02-19T07:27:33.457Z,9.84
2023-02-19T07:28:33.445Z,9.80
2023-02-19T07:29:33.430Z,9.82
2023-02-19T07:30:33.532Z,9.81
2023-02-19T07:31:33.492Z,9.82
2023-02-19T07:32:33.377Z,9.84
2023-02-19T07:33:33.425Z,9.87
2023-02-19T07:34:33.346Z,9.87
2023-02-19T07:35:33.356Z,9.88
2023-02-19T07:36:33.328Z,9.88
2023-02-19T07:37:33.308Z,9.85
2023-02-19T07:38:33.307Z,9.87
2023-02-19T07:39:33.280Z,9.84
2023-02-19T07:40:33.274Z,9.81
2023-02-19T07:41:33.271Z,9.81
2023-02-19T07:42:33.259Z,9.82
2023-02-19T07:43:33.284Z,9.85
2023-02-19T07:44:33.249Z,9.85
2023-02-19T07:45:33.227Z,9.88
2023-02-19T07:46:33.191Z,9.90
2023-02-19T07:47:33.181Z,9.88
2023-02-19T07:48:33.191Z,9.87
2023-02-19T07:49:33.154Z,9.87
2023-02-19T07:50:33.145Z,9.90
2023-02-19T07:51:33.121Z,9.90
2023-02-19T07:52:33.124Z,9.88
2023-02-19T07:53:34.125Z,9.88
2023-02-19T07:54:33.091Z,9.88
2023-02-19T07:55:33.071Z,9.87
2023-02-19T07:56:33.062Z,9.84
2023-02-19T07:57:33.046Z,9.85
2023-02-19T07:58:33.052Z,9.84
2023-02-19T07:59:33.033Z,9.84
2023-02-19T08:00:33.003Z,9.84
2023-02-19T08:01:33.040Z,9.84
2023-02-19T08:02:32.981Z,9.84
2023-02-19T08:03:32.981Z,9.82
2023-02-19T08:04:32.972Z,9.82
2023-02-19T08:05:32.960Z,9.85
2023-02-19T08:06:32.936Z,9.87
2023-02-19T08:07:32.918Z,9.87
2023-02-19T08:08:32.912Z,9.85
2023-02-19T08:09:32.903Z,9.85
2023-02-19T08:10:32.873Z,9.87
2023-02-19T08:11:32.863Z,9.85
2023-02-19T08:12:32.843Z,9.85
2023-02-19T08:13:32.839Z,9.84
2023-02-19T08:14:32.845Z,9.84
2023-02-19T08:15:32.803Z,9.84
2023-02-19T08:16:42.457Z,9.87
2023-02-19T08:17:33.799Z,9.85
2023-02-19T08:18:32.761Z,9.88
2023-02-19T08:19:32.770Z,9.88
2023-02-19T08:20:32.742Z,9.88
2023-02-19T08:21:34.367Z,9.90
2023-02-19T08:22:32.719Z,9.88
2023-02-19T08:23:32.692Z,9.88
2023-02-19T08:24:32.700Z,9.90
2023-02-19T08:25:32.685Z,9.88
2023-02-19T08:26:32.662Z,9.90
2023-02-19T08:27:32.642Z,9.91
2023-02-19T08:28:32.642Z,9.94
2023-02-19T08:29:32.641Z,9.94
2023-02-19T08:30:32.764Z,9.97
2023-02-19T08:31:32.785Z,9.97
2023-02-19T08:32:32.593Z,9.95
2023-02-19T08:33:32.586Z,9.95
2023-02-19T08:34:32.570Z,9.99
2023-02-19T08:35:32.542Z,10.00
2023-02-19T08:36:32.557Z,10.00
2023-02-19T08:37:32.521Z,10.00
2023-02-19T08:38:32.504Z,9.97
2023-02-19T08:39:32.511Z,9.97
2023-02-19T08:40:32.477Z,10.00
2023-02-19T08:41:32.494Z,10.02
2023-02-19T08:42:32.475Z,9.99
2023-02-19T08:43:32.440Z,10.02
2023-02-19T08:44:32.420Z,10.00
2023-02-19T08:45:32.432Z,10.00
2023-02-19T08:46:34.331Z,10.02
2023-02-19T08:47:32.366Z,9.99
2023-02-19T08:48:32.377Z,9.99
2023-02-19T08:49:32.360Z,10.02
2023-02-19T08:50:32.353Z,10.00
2023-02-19T08:51:32.341Z,10.02
2023-02-19T08:52:32.310Z,10.03
2023-02-19T08:53:32.327Z,10.02
2023-02-19T08:54:32.331Z,9.99
2023-02-19T08:55:32.288Z,10.00
2023-02-19T08:56:32.306Z,9.97
2023-02-19T08:57:32.249Z,10.00
2023-02-19T08:58:32.227Z,10.05
2023-02-19T08:59:32.221Z,10.07
2023-02-19T09:00:32.233Z,10.10
2023-02-19T09:01:32.235Z,10.09
2023-02-19T09:02:32.186Z,10.07
2023-02-19T09:03:32.158Z,10.03
2023-02-19T09:04:32.198Z,10.02
2023-02-19T09:05:32.138Z,10.02
2023-02-19T09:06:32.117Z,10.02
2023-02-19T09:07:32.112Z,10.02
2023-02-19T09:08:32.108Z,9.95
2023-02-19T09:09:32.079Z,9.95
2023-02-19T09:10:32.117Z,9.92
2023-02-19T09:11:32.058Z,9.91
2023-02-19T09:12:32.055Z,9.92
2023-02-19T09:13:32.049Z,9.88
2023-02-19T09:14:32.040Z,9.88
2023-02-19T09:15:32.049Z,9.88
2023-02-19T09:16:31.988Z,9.85
2023-02-19T09:17:31.977Z,9.85
2023-02-19T09:18:32.044Z,9.82
2023-02-19T09:19:31.949Z,9.80
2023-02-19T09:20:31.948Z,9.76
2023-02-19T09:21:31.938Z,9.74
2023-02-19T09:22:31.921Z,9.69
2023-02-19T09:23:31.898Z,9.67
2023-02-19T09:24:31.919Z,9.66
2023-02-19T09:25:31.869Z,9.64
2023-02-19T09:26:31.893Z,9.66
2023-02-19T09:27:31.849Z,9.64
2023-02-19T09:28:31.841Z,9.64
2023-02-19T09:29:31.822Z,9.69
2023-02-19T09:30:31.833Z,9.69
2023-02-19T09:31:31.864Z,9.72
2023-02-19T09:32:31.790Z,9.74
2023-02-19T09:33:31.774Z,9.80
2023-02-19T09:34:31.780Z,9.80
2023-02-19T09:35:31.762Z,9.77
2023-02-19T09:36:31.763Z,9.77
2023-02-19T09:37:34.036Z,9.80
2023-02-19T09:38:31.703Z,9.80
2023-02-19T09:39:31.693Z,9.82
2023-02-19T09:40:31.685Z,9.81
2023-02-19T09:41:31.682Z,9.81
2023-02-19T09:42:31.714Z,9.80
2023-02-19T09:43:31.663Z,9.80
2023-02-19T09:44:31.667Z,9.77
2023-02-19T09:45:31.612Z,9.80
2023-02-19T09:46:31.778Z,9.80
2023-02-19T09:47:31.583Z,9.77
2023-02-19T09:48:31.573Z,9.80
2023-02-19T09:49:31.598Z,9.77
2023-02-19T09:50:31.564Z,9.80
2023-02-19T09:51:31.556Z,9.82
2023-02-19T09:52:31.524Z,9.82
2023-02-19T09:53:31.482Z,9.85
2023-02-19T09:54:31.492Z,9.87
2023-02-19T09:55:31.482Z,9.80
2023-02-19T09:56:31.494Z,9.81
2023-02-19T09:57:31.455Z,9.82
2023-02-19T09:58:31.441Z,9.82
2023-02-19T09:59:31.431Z,9.85
2023-02-19T10:00:31.424Z,9.90
2023-02-19T10:01:31.431Z,9.87
2023-02-19T10:02:31.394Z,9.82
2023-02-19T10:03:31.357Z,9.81
2023-02-19T10:04:31.362Z,9.84
2023-02-19T10:05:31.340Z,9.81
2023-02-19T10:06:31.357Z,9.82
2023-02-19T10:07:31.320Z,9.82
2023-02-19T10:08:31.310Z,9.84
2023-02-19T10:09:31.298Z,9.85
2023-02-19T10:10:31.289Z,9.84
2023-02-19T10:11:31.277Z,9.84
2023-02-19T10:12:31.254Z,9.85
2023-02-19T10:13:31.238Z,9.81
2023-02-19T10:14:31.254Z,9.81
2023-02-19T10:15:31.215Z,9.84
2023-02-19T10:16:31.220Z,9.88
2023-02-19T10:17:31.190Z,9.91
2023-02-19T10:18:31.184Z,9.92
2023-02-19T10:19:31.149Z,9.95
2023-02-19T10:20:31.149Z,9.97
2023-02-19T10:21:31.150Z,9.92
2023-02-19T10:22:31.109Z,9.92
2023-02-19T10:23:31.112Z,9.91
2023-02-19T10:24:31.127Z,9.87
2023-02-19T10:25:31.080Z,9.85
2023-02-19T10:26:31.092Z,9.82
2023-02-19T10:27:31.074Z,9.84
2023-02-19T10:28:31.057Z,9.82
2023-02-19T10:29:31.030Z,9.84
2023-02-19T10:30:31.061Z,9.85
2023-02-19T10:31:31.109Z,9.87
2023-02-19T10:32:31.010Z,9.87
2023-02-19T10:33:30.981Z,9.88
2023-02-19T10:34:30.960Z,9.88
2023-02-19T10:35:30.952Z,9.87
2023-02-19T10:36:32.298Z,9.90
2023-02-19T10:37:30.938Z,9.87
2023-02-19T10:38:30.912Z,9.85
2023-02-19T10:39:30.910Z,9.90
2023-02-19T10:40:30.891Z,9.90
2023-02-19T10:41:30.888Z,9.87
2023-02-19T10:42:30.884Z,9.88
2023-02-19T10:43:30.844Z,9.90
2023-02-19T10:44:30.841Z,9.90
2023-02-19T10:45:30.825Z,9.94
2023-02-19T10:46:30.827Z,9.95
2023-02-19T10:47:30.813Z,9.97
2023-02-19T10:48:30.816Z,9.99
2023-02-19T10:49:30.781Z,9.97
2023-02-19T10:50:30.768Z,10.00
2023-02-19T10:51:30.745Z,10.02
2023-02-19T10:52:30.752Z,10.02
2023-02-19T10:53:30.723Z,10.02
2023-02-19T10:54:30.702Z,10.03
2023-02-19T10:55:30.694Z,10.09
2023-02-19T10:56:30.672Z,10.10
2023-02-19T10:57:30.765Z,10.12
2023-02-19T10:58:30.662Z,10.12
2023-02-19T10:59:30.634Z,10.12
2023-02-19T11:00:30.846Z,10.12
2023-02-19T11:01:30.618Z,10.13
2023-02-19T11:02:30.622Z,10.13
2023-02-19T11:03:30.590Z,10.12
2023-02-19T11:04:30.588Z,10.15
2023-02-19T11:05:30.630Z,10.17
2023-02-19T11:06:30.541Z,10.18
2023-02-19T11:07:30.552Z,10.24
2023-02-19T11:08:30.527Z,10.25
2023-02-19T11:09:30.499Z,10.27
2023-02-19T11:10:30.668Z,10.28
2023-02-19T11:11:30.482Z,10.31
2023-02-19T11:12:30.482Z,10.34
2023-02-19T11:13:30.475Z,10.34
2023-02-19T11:14:30.461Z,10.38
2023-02-19T11:15:30.431Z,10.38
2023-02-19T11:16:30.437Z,10.38
2023-02-19T11:17:30.412Z,10.36
2023-02-19T11:18:30.377Z,10.36
2023-02-19T11:19:30.375Z,10.39
2023-02-19T11:20:30.399Z,10.39
2023-02-19T11:21:30.351Z,10.34
2023-02-19T11:22:30.363Z,10.31
2023-02-19T11:23:30.327Z,10.31
2023-02-19T11:24:30.302Z,10.30
2023-02-19T11:25:30.295Z,10.30
2023-02-19T11:26:30.312Z,10.21
2023-02-19T11:27:30.264Z,10.18
2023-02-19T11:28:30.310Z,10.10
2023-02-19T11:29:30.244Z,10.05
2023-02-19T11:30:30.272Z,10.02
2023-02-19T11:31:30.275Z,10.00
2023-02-19T11:32:30.241Z,10.03
2023-02-19T11:33:30.207Z,10.05
2023-02-19T11:34:30.175Z,10.06
2023-02-19T11:35:30.161Z,10.03
2023-02-19T11:36:30.864Z,10.03
2023-02-19T11:37:30.124Z,10.03
2023-02-19T11:38:30.146Z,10.05
2023-02-19T11:39:30.115Z,10.00
2023-02-19T11:40:30.105Z,9.97
2023-02-19T11:41:30.124Z,10.03
2023-02-19T11:42:30.075Z,10.06
2023-02-19T11:43:30.075Z,10.06
2023-02-19T11:44:30.043Z,10.09
2023-02-19T11:45:30.027Z,10.09
2023-02-19T11:46:30.074Z,10.09
2023-02-19T11:47:30.000Z,10.12
2023-02-19T11:48:30.339Z,10.12
2023-02-19T11:49:29.981Z,10.09
2023-02-19T11:50:29.966Z,10.09
2023-02-19T11:51:29.957Z,10.07
2023-02-19T11:52:29.958Z,10.09
2023-02-19T11:53:29.949Z,10.10
2023-02-19T11:54:29.928Z,10.12
2023-02-19T11:55:29.905Z,10.10
2023-02-19T11:56:29.886Z,10.10
2023-02-19T11:57:29.892Z,10.10
2023-02-19T11:58:29.888Z,10.10
2023-02-19T11:59:29.844Z,10.09
2023-02-19T12:00:29.833Z,10.13
2023-02-19T12:01:29.820Z,10.18
2023-02-19T12:02:29.813Z,10.20
2023-02-19T12:03:29.812Z,10.20
2023-02-19T12:04:29.783Z,10.21
2023-02-19T12:05:29.793Z,10.21
2023-02-19T12:06:29.744Z,10.20
2023-02-19T12:07:29.762Z,10.17
2023-02-19T12:08:29.732Z,10.15
2023-02-19T12:09:29.760Z,10.20
2023-02-19T12:10:29.726Z,10.20
2023-02-19T12:11:29.694Z,10.18
2023-02-19T12:12:29.678Z,10.18
2023-02-19T12:13:29.661Z,10.20
2023-02-19T12:14:29.760Z,10.23
2023-02-19T12:15:29.633Z,10.21
2023-02-19T12:16:29.631Z,10.20
2023-02-19T12:17:29.618Z,10.07
2023-02-19T12:18:29.590Z,10.07
2023-02-19T12:19:29.592Z,10.10
2023-02-19T12:20:31.778Z,10.15
2023-02-19T12:21:29.564Z,10.18
2023-02-19T12:22:29.532Z,10.20
2023-02-19T12:23:29.533Z,10.20
2023-02-19T12:24:29.524Z,10.20
2023-02-19T12:25:29.545Z,10.27
2023-02-19T12:26:29.493Z,10.25
2023-02-19T12:27:29.483Z,10.27
2023-02-19T12:28:29.453Z,10.27
2023-02-19T12:29:29.473Z,10.30
2023-02-19T12:30:29.503Z,10.36
2023-02-19T12:31:31.380Z,10.41
2023-02-19T12:32:29.411Z,10.43
2023-02-19T12:33:29.399Z,10.45
2023-02-19T12:34:29.392Z,10.48
2023-02-19T12:35:29.362Z,10.51
2023-02-19T12:36:29.352Z,10.57
2023-02-19T12:37:29.434Z,10.61
2023-02-19T12:38:29.324Z,10.59
2023-02-19T12:39:29.350Z,10.58
2023-02-19T12:40:29.320Z,10.58
2023-02-19T12:41:29.293Z,10.58
2023-02-19T12:42:29.283Z,10.62
2023-02-19T12:43:29.302Z,10.61
2023-02-19T12:44:29.264Z,10.62
2023-02-19T12:45:29.242Z,10.65
2023-02-19T12:46:29.244Z,10.68
2023-02-19T12:47:29.294Z,10.65
2023-02-19T12:48:29.203Z,10.65
2023-02-19T12:49:29.195Z,10.75
2023-02-19T12:50:29.364Z,10.76
2023-02-19T12:51:29.175Z,10.77
2023-02-19T12:52:29.172Z,10.79
2023-02-19T12:53:36.292Z,10.77
2023-02-19T12:54:29.127Z,10.79
2023-02-19T12:55:29.961Z,10.80
2023-02-19T12:56:29.321Z,10.80
2023-02-19T12:57:29.094Z,10.83
2023-02-19T12:58:29.108Z,10.82
2023-02-19T12:59:29.072Z,10.82
2023-02-19T13:00:29.065Z,10.82
2023-02-19T13:01:29.091Z,10.84
2023-02-19T13:02:29.075Z,10.89
2023-02-19T13:03:29.045Z,10.84
2023-02-19T13:04:28.997Z,10.86
2023-02-19T13:05:28.998Z,10.87
2023-02-19T13:06:28.966Z,10.82
2023-02-19T13:07:28.958Z,10.79